sensor_id;sensor_type;location;lat;lon;timestamp;P1;durP1;ratioP1;P2;durP2;ratioP2
291;SDS011;23311;48.776;9.162;2023-06-10T00:01:26;7.40;;;7.00;;
291;SDS011;23311;48.776;9.162;2023-06-10T00:03:54;8.30;;;7.90;;
291;SDS011;23311;48.776;9.162;2023-06-10T00:06:22;8.13;;;7.73;;
291;SDS011;23311;48.776;9.162;2023-06-10T00:08:52;8.10;;;7.70;;
291;SDS011;23311;48.776;9.162;2023-06-10T00:11:21;7.40;;;6.97;;
291;SDS011;23311;48.776;9.162;2023-06-10T00:13:49;9.23;;;7.77;;
291;SDS011;23311;48.776;9.162;2023-06-10T00:16:17;7.47;;;7.07;;
291;SDS011;23311;48.776;9.162;2023-06-10T00:18:45;8.47;;;8.00;;
291;SDS011;23311;48.776;9.162;2023-06-10T00:21:15;8.53;;;8.03;;
291;SDS011;23311;48.776;9.162;2023-06-10T00:23:43;8.73;;;7.97;;
291;SDS011;23311;48.776;9.162;2023-06-10T00:26:13;8.17;;;7.77;;
291;SDS011;23311;48.776;9.162;2023-06-10T00:28:41;7.87;;;7.47;;
291;SDS011;23311;48.776;9.162;2023-06-10T00:31:11;8.23;;;7.83;;
291;SDS011;23311;48.776;9.162;2023-06-10T00:33:39;8.70;;;8.20;;
291;SDS011;23311;48.776;9.162;2023-06-10T00:36:07;7.80;;;7.40;;
291;SDS011;23311;48.776;9.162;2023-06-10T00:38:35;8.67;;;8.17;;
291;SDS011;23311;48.776;9.162;2023-06-10T00:41:04;8.33;;;7.90;;
291;SDS011;23311;48.776;9.162;2023-06-10T00:43:33;8.83;;;8.33;;
291;SDS011;23311;48.776;9.162;2023-06-10T00:46:01;9.23;;;8.73;;
291;SDS011;23311;48.776;9.162;2023-06-10T00:48:30;8.27;;;7.87;;
291;SDS011;23311;48.776;9.162;2023-06-10T00:50:58;8.20;;;7.80;;
291;SDS011;23311;48.776;9.162;2023-06-10T00:53:27;8.17;;;7.77;;
291;SDS011;23311;48.776;9.162;2023-06-10T00:55:56;7.97;;;7.57;;
291;SDS011;23311;48.776;9.162;2023-06-10T00:58:24;9.17;;;8.67;;
291;SDS011;23311;48.776;9.162;2023-06-10T01:00:55;7.70;;;7.33;;
291;SDS011;23311;48.776;9.162;2023-06-10T01:03:24;8.70;;;8.20;;
291;SDS011;23311;48.776;9.162;2023-06-10T01:05:53;8.27;;;7.87;;
291;SDS011;23311;48.776;9.162;2023-06-10T01:08:28;8.03;;;7.63;;
291;SDS011;23311;48.776;9.162;2023-06-10T01:11:07;7.80;;;7.40;;
291;SDS011;23311;48.776;9.162;2023-06-10T01:13:41;8.20;;;7.80;;
291;SDS011;23311;48.776;9.162;2023-06-10T01:16:12;9.40;;;8.90;;
291;SDS011;23311;48.776;9.162;2023-06-10T01:18:40;8.63;;;8.13;;
291;SDS011;23311;48.776;9.162;2023-06-10T01:21:13;8.33;;;7.90;;
291;SDS011;23311;48.776;9.162;2023-06-10T01:23:44;8.07;;;7.67;;
291;SDS011;23311;48.776;9.162;2023-06-10T01:26:12;8.27;;;7.87;;
291;SDS011;23311;48.776;9.162;2023-06-10T01:28:43;8.80;;;8.30;;
291;SDS011;23311;48.776;9.162;2023-06-10T01:31:16;12.23;;;7.40;;
291;SDS011;23311;48.776;9.162;2023-06-10T01:33:52;8.20;;;7.80;;
291;SDS011;23311;48.776;9.162;2023-06-10T01:36:22;8.63;;;7.70;;
291;SDS011;23311;48.776;9.162;2023-06-10T01:38:51;7.87;;;7.47;;
291;SDS011;23311;48.776;9.162;2023-06-10T01:41:21;8.93;;;8.43;;
291;SDS011;23311;48.776;9.162;2023-06-10T01:43:51;7.57;;;7.20;;
291;SDS011;23311;48.776;9.162;2023-06-10T01:46:19;7.97;;;7.57;;
291;SDS011;23311;48.776;9.162;2023-06-10T01:48:47;8.03;;;7.63;;
291;SDS011;23311;48.776;9.162;2023-06-10T01:51:16;8.00;;;7.13;;
291;SDS011;23311;48.776;9.162;2023-06-10T01:53:45;8.07;;;7.67;;
291;SDS011;23311;48.776;9.162;2023-06-10T01:56:13;8.20;;;7.80;;
291;SDS011;23311;48.776;9.162;2023-06-10T01:58:44;8.30;;;7.90;;
291;SDS011;23311;48.776;9.162;2023-06-10T02:01:12;7.90;;;7.50;;
291;SDS011;23311;48.776;9.162;2023-06-10T02:03:41;7.37;;;6.97;;
291;SDS011;23311;48.776;9.162;2023-06-10T02:06:09;8.07;;;7.67;;
291;SDS011;23311;48.776;9.162;2023-06-10T02:08:37;8.00;;;7.60;;
291;SDS011;23311;48.776;9.162;2023-06-10T02:11:06;8.93;;;8.47;;
291;SDS011;23311;48.776;9.162;2023-06-10T02:13:35;8.17;;;7.77;;
291;SDS011;23311;48.776;9.162;2023-06-10T02:16:03;7.00;;;6.60;;
291;SDS011;23311;48.776;9.162;2023-06-10T02:18:32;7.73;;;7.33;;
291;SDS011;23311;48.776;9.162;2023-06-10T02:21:00;8.50;;;7.57;;
291;SDS011;23311;48.776;9.162;2023-06-10T02:23:28;8.00;;;7.60;;
291;SDS011;23311;48.776;9.162;2023-06-10T02:25:56;8.47;;;8.00;;
291;SDS011;23311;48.776;9.162;2023-06-10T02:28:26;8.53;;;8.03;;
291;SDS011;23311;48.776;9.162;2023-06-10T02:30:54;8.70;;;8.20;;
291;SDS011;23311;48.776;9.162;2023-06-10T02:33:23;7.93;;;7.53;;
291;SDS011;23311;48.776;9.162;2023-06-10T02:35:51;7.47;;;7.07;;
291;SDS011;23311;48.776;9.162;2023-06-10T02:38:19;6.90;;;6.50;;
291;SDS011;23311;48.776;9.162;2023-06-10T02:40:47;8.00;;;7.60;;
291;SDS011;23311;48.776;9.162;2023-06-10T02:43:15;8.50;;;8.00;;
291;SDS011;23311;48.776;9.162;2023-06-10T02:45:45;7.67;;;7.27;;
291;SDS011;23311;48.776;9.162;2023-06-10T02:48:13;8.00;;;7.60;;
291;SDS011;23311;48.776;9.162;2023-06-10T02:50:41;8.10;;;7.70;;
291;SDS011;23311;48.776;9.162;2023-06-10T02:53:09;7.73;;;7.33;;
291;SDS011;23311;48.776;9.162;2023-06-10T02:55:37;7.10;;;6.70;;
291;SDS011;23311;48.776;9.162;2023-06-10T02:58:05;7.23;;;6.83;;
291;SDS011;23311;48.776;9.162;2023-06-10T03:00:34;7.23;;;6.83;;
291;SDS011;23311;48.776;9.162;2023-06-10T03:03:03;9.23;;;6.57;;
291;SDS011;23311;48.776;9.162;2023-06-10T03:05:32;7.10;;;6.70;;
291;SDS011;23311;48.776;9.162;2023-06-10T03:08:00;6.80;;;6.40;;
291;SDS011;23311;48.776;9.162;2023-06-10T03:10:28;7.00;;;6.60;;
291;SDS011;23311;48.776;9.162;2023-06-10T03:12:56;6.67;;;6.27;;
291;SDS011;23311;48.776;9.162;2023-06-10T03:15:24;7.40;;;6.80;;
291;SDS011;23311;48.776;9.162;2023-06-10T03:17:55;7.60;;;7.20;;
291;SDS011;23311;48.776;9.162;2023-06-10T03:20:24;8.03;;;7.60;;
291;SDS011;23311;48.776;9.162;2023-06-10T03:22:54;7.47;;;7.07;;
291;SDS011;23311;48.776;9.162;2023-06-10T03:25:22;7.53;;;7.13;;
291;SDS011;23311;48.776;9.162;2023-06-10T03:27:50;8.20;;;7.80;;
291;SDS011;23311;48.776;9.162;2023-06-10T03:30:18;7.47;;;7.07;;
291;SDS011;23311;48.776;9.162;2023-06-10T03:32:46;7.80;;;7.40;;
291;SDS011;23311;48.776;9.162;2023-06-10T03:35:15;8.07;;;7.70;;
291;SDS011;23311;48.776;9.162;2023-06-10T03:37:45;7.70;;;7.30;;
291;SDS011;23311;48.776;9.162;2023-06-10T03:40:13;7.20;;;6.80;;
291;SDS011;23311;48.776;9.162;2023-06-10T03:42:41;7.80;;;7.40;;
291;SDS011;23311;48.776;9.162;2023-06-10T03:45:10;8.30;;;7.40;;
291;SDS011;23311;48.776;9.162;2023-06-10T03:47:38;8.03;;;7.63;;
291;SDS011;23311;48.776;9.162;2023-06-10T03:50:07;7.70;;;7.30;;
291;SDS011;23311;48.776;9.162;2023-06-10T03:52:37;6.77;;;6.37;;
291;SDS011;23311;48.776;9.162;2023-06-10T03:55:07;7.27;;;6.87;;
291;SDS011;23311;48.776;9.162;2023-06-10T03:57:38;6.50;;;6.10;;
291;SDS011;23311;48.776;9.162;2023-06-10T04:00:06;7.50;;;7.10;;
291;SDS011;23311;48.776;9.162;2023-06-10T04:02:37;7.37;;;6.97;;
291;SDS011;23311;48.776;9.162;2023-06-10T04:05:13;6.90;;;6.50;;
291;SDS011;23311;48.776;9.162;2023-06-10T04:07:41;7.23;;;6.83;;
291;SDS011;23311;48.776;9.162;2023-06-10T04:10:11;6.90;;;6.50;;
291;SDS011;23311;48.776;9.162;2023-06-10T04:12:39;8.97;;;5.83;;
291;SDS011;23311;48.776;9.162;2023-06-10T04:15:08;6.80;;;6.40;;
291;SDS011;23311;48.776;9.162;2023-06-10T04:17:37;6.87;;;6.47;;
291;SDS011;23311;48.776;9.162;2023-06-10T04:20:06;6.20;;;5.90;;
291;SDS011;23311;48.776;9.162;2023-06-10T04:22:36;6.50;;;6.10;;
291;SDS011;23311;48.776;9.162;2023-06-10T04:25:04;6.20;;;5.90;;
291;SDS011;23311;48.776;9.162;2023-06-10T04:27:35;6.23;;;5.90;;
291;SDS011;23311;48.776;9.162;2023-06-10T04:30:04;6.07;;;5.80;;
291;SDS011;23311;48.776;9.162;2023-06-10T04:32:33;7.33;;;6.93;;
291;SDS011;23311;48.776;9.162;2023-06-10T04:35:01;8.27;;;7.87;;
291;SDS011;23311;48.776;9.162;2023-06-10T04:37:29;8.00;;;7.60;;
291;SDS011;23311;48.776;9.162;2023-06-10T04:39:57;6.97;;;6.57;;
291;SDS011;23311;48.776;9.162;2023-06-10T04:42:26;7.97;;;7.57;;
291;SDS011;23311;48.776;9.162;2023-06-10T04:44:56;7.80;;;7.40;;
291;SDS011;23311;48.776;9.162;2023-06-10T04:47:24;7.13;;;6.73;;
291;SDS011;23311;48.776;9.162;2023-06-10T04:49:53;7.63;;;7.23;;
291;SDS011;23311;48.776;9.162;2023-06-10T04:52:21;7.00;;;6.60;;
291;SDS011;23311;48.776;9.162;2023-06-10T04:54:49;7.30;;;6.90;;
291;SDS011;23311;48.776;9.162;2023-06-10T04:57:17;6.70;;;6.30;;
291;SDS011;23311;48.776;9.162;2023-06-10T04:59:46;6.97;;;6.57;;
291;SDS011;23311;48.776;9.162;2023-06-10T05:02:16;7.47;;;7.07;;
291;SDS011;23311;48.776;9.162;2023-06-10T05:04:44;8.03;;;7.63;;
291;SDS011;23311;48.776;9.162;2023-06-10T05:07:12;5.80;;;5.50;;
291;SDS011;23311;48.776;9.162;2023-06-10T05:09:40;6.73;;;6.33;;
291;SDS011;23311;48.776;9.162;2023-06-10T05:12:09;6.63;;;6.23;;
291;SDS011;23311;48.776;9.162;2023-06-10T05:14:37;6.47;;;6.07;;
291;SDS011;23311;48.776;9.162;2023-06-10T05:17:05;6.70;;;6.30;;
291;SDS011;23311;48.776;9.162;2023-06-10T05:19:34;6.53;;;6.13;;
291;SDS011;23311;48.776;9.162;2023-06-10T05:22:04;7.17;;;6.50;;
291;SDS011;23311;48.776;9.162;2023-06-10T05:24:32;6.63;;;6.20;;
291;SDS011;23311;48.776;9.162;2023-06-10T05:27:00;5.90;;;5.60;;
291;SDS011;23311;48.776;9.162;2023-06-10T05:29:29;6.23;;;5.90;;
291;SDS011;23311;48.776;9.162;2023-06-10T05:31:57;6.73;;;6.33;;
291;SDS011;23311;48.776;9.162;2023-06-10T05:34:29;6.60;;;5.90;;
291;SDS011;23311;48.776;9.162;2023-06-10T05:36:59;6.37;;;5.93;;
291;SDS011;23311;48.776;9.162;2023-06-10T05:39:27;5.80;;;5.50;;
291;SDS011;23311;48.776;9.162;2023-06-10T05:41:55;5.60;;;5.30;;
291;SDS011;23311;48.776;9.162;2023-06-10T05:44:25;5.37;;;5.17;;
291;SDS011;23311;48.776;9.162;2023-06-10T05:46:53;5.30;;;5.00;;
291;SDS011;23311;48.776;9.162;2023-06-10T05:49:21;5.60;;;5.30;;
291;SDS011;23311;48.776;9.162;2023-06-10T05:51:49;5.53;;;5.23;;
291;SDS011;23311;48.776;9.162;2023-06-10T05:54:20;5.47;;;5.17;;
291;SDS011;23311;48.776;9.162;2023-06-10T05:56:48;6.30;;;5.10;;
291;SDS011;23311;48.776;9.162;2023-06-10T05:59:16;5.63;;;5.30;;
291;SDS011;23311;48.776;9.162;2023-06-10T06:01:44;8.87;;;5.23;;
291;SDS011;23311;48.776;9.162;2023-06-10T06:04:12;5.67;;;5.37;;
291;SDS011;23311;48.776;9.162;2023-06-10T06:06:41;5.87;;;5.57;;
291;SDS011;23311;48.776;9.162;2023-06-10T06:09:09;5.60;;;5.30;;
291;SDS011;23311;48.776;9.162;2023-06-10T06:11:38;5.20;;;4.90;;
291;SDS011;23311;48.776;9.162;2023-06-10T06:14:06;5.00;;;4.70;;
291;SDS011;23311;48.776;9.162;2023-06-10T06:16:34;5.67;;;5.37;;
291;SDS011;23311;48.776;9.162;2023-06-10T06:19:03;5.40;;;5.10;;
291;SDS011;23311;48.776;9.162;2023-06-10T06:21:31;5.40;;;5.10;;
291;SDS011;23311;48.776;9.162;2023-06-10T06:23:59;5.87;;;5.57;;
291;SDS011;23311;48.776;9.162;2023-06-10T06:26:27;6.07;;;5.77;;
291;SDS011;23311;48.776;9.162;2023-06-10T06:28:57;5.57;;;4.80;;
291;SDS011;23311;48.776;9.162;2023-06-10T06:31:25;5.70;;;5.40;;
291;SDS011;23311;48.776;9.162;2023-06-10T06:33:53;5.60;;;5.30;;
291;SDS011;23311;48.776;9.162;2023-06-10T06:36:21;5.97;;;5.67;;
291;SDS011;23311;48.776;9.162;2023-06-10T06:38:49;5.97;;;5.67;;
291;SDS011;23311;48.776;9.162;2023-06-10T06:41:18;8.60;;;6.03;;
291;SDS011;23311;48.776;9.162;2023-06-10T06:43:48;5.97;;;5.67;;
291;SDS011;23311;48.776;9.162;2023-06-10T06:46:17;5.00;;;4.70;;
291;SDS011;23311;48.776;9.162;2023-06-10T06:48:46;5.43;;;5.17;;
291;SDS011;23311;48.776;9.162;2023-06-10T06:51:14;5.77;;;5.47;;
291;SDS011;23311;48.776;9.162;2023-06-10T06:53:42;5.13;;;4.83;;
291;SDS011;23311;48.776;9.162;2023-06-10T06:56:12;5.90;;;5.60;;
291;SDS011;23311;48.776;9.162;2023-06-10T06:58:40;5.63;;;5.33;;
291;SDS011;23311;48.776;9.162;2023-06-10T07:01:08;6.73;;;5.50;;
291;SDS011;23311;48.776;9.162;2023-06-10T07:03:38;5.70;;;5.40;;
291;SDS011;23311;48.776;9.162;2023-06-10T07:06:06;5.50;;;5.20;;
291;SDS011;23311;48.776;9.162;2023-06-10T07:08:34;7.73;;;5.30;;
291;SDS011;23311;48.776;9.162;2023-06-10T07:11:02;5.40;;;5.10;;
291;SDS011;23311;48.776;9.162;2023-06-10T07:13:30;5.80;;;5.50;;
291;SDS011;23311;48.776;9.162;2023-06-10T07:15:58;6.17;;;5.87;;
291;SDS011;23311;48.776;9.162;2023-06-10T07:18:26;5.23;;;4.93;;
291;SDS011;23311;48.776;9.162;2023-06-10T07:20:56;5.90;;;5.60;;
291;SDS011;23311;48.776;9.162;2023-06-10T07:23:24;5.90;;;5.50;;
291;SDS011;23311;48.776;9.162;2023-06-10T07:25:52;5.20;;;4.90;;
291;SDS011;23311;48.776;9.162;2023-06-10T07:28:20;5.80;;;5.50;;
291;SDS011;23311;48.776;9.162;2023-06-10T07:30:48;5.20;;;4.93;;
291;SDS011;23311;48.776;9.162;2023-06-10T07:33:16;5.67;;;5.37;;
291;SDS011;23311;48.776;9.162;2023-06-10T07:35:45;5.73;;;5.43;;
291;SDS011;23311;48.776;9.162;2023-06-10T07:38:14;5.20;;;4.90;;
291;SDS011;23311;48.776;9.162;2023-06-10T07:40:44;5.10;;;4.80;;
291;SDS011;23311;48.776;9.162;2023-06-10T07:43:13;5.33;;;5.03;;
291;SDS011;23311;48.776;9.162;2023-06-10T07:45:41;5.40;;;5.10;;
291;SDS011;23311;48.776;9.162;2023-06-10T07:48:10;5.90;;;5.60;;
291;SDS011;23311;48.776;9.162;2023-06-10T07:50:38;5.00;;;4.70;;
291;SDS011;23311;48.776;9.162;2023-06-10T07:53:06;5.80;;;5.50;;
291;SDS011;23311;48.776;9.162;2023-06-10T07:55:36;5.60;;;5.30;;
291;SDS011;23311;48.776;9.162;2023-06-10T07:58:04;5.90;;;5.60;;
291;SDS011;23311;48.776;9.162;2023-06-10T08:00:32;5.63;;;5.33;;
291;SDS011;23311;48.776;9.162;2023-06-10T08:03:00;5.63;;;5.30;;
291;SDS011;23311;48.776;9.162;2023-06-10T08:05:29;6.40;;;6.00;;
291;SDS011;23311;48.776;9.162;2023-06-10T08:07:57;6.23;;;5.90;;
291;SDS011;23311;48.776;9.162;2023-06-10T08:10:29;5.23;;;4.93;;
291;SDS011;23311;48.776;9.162;2023-06-10T08:12:59;5.63;;;5.33;;
291;SDS011;23311;48.776;9.162;2023-06-10T08:15:27;5.40;;;5.10;;
291;SDS011;23311;48.776;9.162;2023-06-10T08:17:55;5.43;;;5.13;;
291;SDS011;23311;48.776;9.162;2023-06-10T08:20:24;5.80;;;5.50;;
291;SDS011;23311;48.776;9.162;2023-06-10T08:22:52;5.40;;;5.10;;
291;SDS011;23311;48.776;9.162;2023-06-10T08:25:20;5.60;;;5.30;;
291;SDS011;23311;48.776;9.162;2023-06-10T08:27:48;5.60;;;5.30;;
291;SDS011;23311;48.776;9.162;2023-06-10T08:30:19;5.00;;;4.70;;
291;SDS011;23311;48.776;9.162;2023-06-10T08:32:48;5.40;;;5.10;;
291;SDS011;23311;48.776;9.162;2023-06-10T08:35:16;5.67;;;5.30;;
291;SDS011;23311;48.776;9.162;2023-06-10T08:37:44;5.33;;;5.03;;
291;SDS011;23311;48.776;9.162;2023-06-10T08:40:12;4.90;;;4.60;;
291;SDS011;23311;48.776;9.162;2023-06-10T08:42:43;5.90;;;5.60;;
291;SDS011;23311;48.776;9.162;2023-06-10T08:45:16;5.33;;;5.03;;
291;SDS011;23311;48.776;9.162;2023-06-10T08:47:46;5.10;;;4.80;;
291;SDS011;23311;48.776;9.162;2023-06-10T08:50:18;5.20;;;4.93;;
291;SDS011;23311;48.776;9.162;2023-06-10T08:52:48;5.43;;;5.20;;
291;SDS011;23311;48.776;9.162;2023-06-10T08:55:21;6.00;;;5.70;;
291;SDS011;23311;48.776;9.162;2023-06-10T08:57:58;5.33;;;5.03;;
291;SDS011;23311;48.776;9.162;2023-06-10T09:00:27;5.47;;;5.17;;
291;SDS011;23311;48.776;9.162;2023-06-10T09:02:58;4.90;;;4.23;;
291;SDS011;23311;48.776;9.162;2023-06-10T09:05:31;5.50;;;5.20;;
291;SDS011;23311;48.776;9.162;2023-06-10T09:08:03;5.30;;;5.00;;
291;SDS011;23311;48.776;9.162;2023-06-10T09:10:33;5.30;;;5.00;;
291;SDS011;23311;48.776;9.162;2023-06-10T09:13:01;5.50;;;5.20;;
291;SDS011;23311;48.776;9.162;2023-06-10T09:15:29;5.10;;;4.80;;
291;SDS011;23311;48.776;9.162;2023-06-10T09:17:59;7.80;;;5.40;;
291;SDS011;23311;48.776;9.162;2023-06-10T09:20:28;5.50;;;5.20;;
291;SDS011;23311;48.776;9.162;2023-06-10T09:22:56;5.07;;;4.77;;
291;SDS011;23311;48.776;9.162;2023-06-10T09:25:34;4.10;;;3.90;;
291;SDS011;23311;48.776;9.162;2023-06-10T09:28:04;5.50;;;5.20;;
291;SDS011;23311;48.776;9.162;2023-06-10T09:30:33;4.90;;;4.60;;
291;SDS011;23311;48.776;9.162;2023-06-10T09:33:03;5.67;;;5.37;;
291;SDS011;23311;48.776;9.162;2023-06-10T09:35:44;5.57;;;5.27;;
291;SDS011;23311;48.776;9.162;2023-06-10T09:38:14;5.23;;;4.93;;
291;SDS011;23311;48.776;9.162;2023-06-10T09:40:49;5.27;;;4.97;;
291;SDS011;23311;48.776;9.162;2023-06-10T09:43:18;5.73;;;5.43;;
291;SDS011;23311;48.776;9.162;2023-06-10T09:45:47;5.07;;;4.77;;
291;SDS011;23311;48.776;9.162;2023-06-10T09:48:17;5.40;;;5.10;;
291;SDS011;23311;48.776;9.162;2023-06-10T09:50:45;5.60;;;5.30;;
291;SDS011;23311;48.776;9.162;2023-06-10T09:53:16;5.50;;;5.20;;
291;SDS011;23311;48.776;9.162;2023-06-10T09:55:45;5.87;;;5.17;;
291;SDS011;23311;48.776;9.162;2023-06-10T09:58:13;5.27;;;4.97;;
291;SDS011;23311;48.776;9.162;2023-06-10T10:00:42;4.80;;;4.50;;
291;SDS011;23311;48.776;9.162;2023-06-10T10:03:10;5.80;;;5.30;;
291;SDS011;23311;48.776;9.162;2023-06-10T10:05:57;4.80;;;4.50;;
291;SDS011;23311;48.776;9.162;2023-06-10T10:08:27;5.27;;;4.97;;
291;SDS011;23311;48.776;9.162;2023-06-10T10:10:56;5.90;;;5.60;;
291;SDS011;23311;48.776;9.162;2023-06-10T10:13:25;5.30;;;5.00;;
291;SDS011;23311;48.776;9.162;2023-06-10T10:15:55;5.87;;;5.57;;
291;SDS011;23311;48.776;9.162;2023-06-10T10:18:29;4.90;;;4.60;;
291;SDS011;23311;48.776;9.162;2023-06-10T10:21:01;5.23;;;4.93;;
291;SDS011;23311;48.776;9.162;2023-06-10T10:23:39;5.30;;;5.00;;
291;SDS011;23311;48.776;9.162;2023-06-10T10:26:13;4.90;;;4.60;;
291;SDS011;23311;48.776;9.162;2023-06-10T10:28:48;5.00;;;4.70;;
291;SDS011;23311;48.776;9.162;2023-06-10T10:31:24;5.30;;;5.00;;
291;SDS011;23311;48.776;9.162;2023-06-10T10:33:59;5.50;;;4.83;;
291;SDS011;23311;48.776;9.162;2023-06-10T10:36:28;5.13;;;4.83;;
291;SDS011;23311;48.776;9.162;2023-06-10T10:38:57;6.73;;;5.47;;
291;SDS011;23311;48.776;9.162;2023-06-10T10:41:28;4.50;;;4.20;;
291;SDS011;23311;48.776;9.162;2023-06-10T10:43:59;5.53;;;5.23;;
291;SDS011;23311;48.776;9.162;2023-06-10T10:46:28;5.23;;;4.93;;
291;SDS011;23311;48.776;9.162;2023-06-10T10:48:59;5.60;;;5.30;;
291;SDS011;23311;48.776;9.162;2023-06-10T10:51:30;5.23;;;4.93;;
291;SDS011;23311;48.776;9.162;2023-06-10T10:57:11;5.27;;;4.63;;
291;SDS011;23311;48.776;9.162;2023-06-10T11:02:32;4.80;;;4.50;;
291;SDS011;23311;48.776;9.162;2023-06-10T11:05:03;5.00;;;4.70;;
291;SDS011;23311;48.776;9.162;2023-06-10T11:07:33;6.17;;;5.87;;
291;SDS011;23311;48.776;9.162;2023-06-10T11:10:03;4.87;;;4.57;;
291;SDS011;23311;48.776;9.162;2023-06-10T11:12:40;5.00;;;4.70;;
291;SDS011;23311;48.776;9.162;2023-06-10T11:15:09;5.63;;;5.33;;
291;SDS011;23311;48.776;9.162;2023-06-10T11:17:37;5.37;;;5.07;;
291;SDS011;23311;48.776;9.162;2023-06-10T11:20:45;5.77;;;5.47;;
291;SDS011;23311;48.776;9.162;2023-06-10T11:26:21;5.47;;;5.17;;
291;SDS011;23311;48.776;9.162;2023-06-10T11:29:08;6.17;;;4.90;;
291;SDS011;23311;48.776;9.162;2023-06-10T11:31:38;6.40;;;6.00;;
291;SDS011;23311;48.776;9.162;2023-06-10T11:34:21;5.57;;;5.20;;
291;SDS011;23311;48.776;9.162;2023-06-10T11:36:52;5.57;;;5.27;;
291;SDS011;23311;48.776;9.162;2023-06-10T11:39:21;5.47;;;5.17;;
291;SDS011;23311;48.776;9.162;2023-06-10T11:41:52;5.57;;;5.27;;
291;SDS011;23311;48.776;9.162;2023-06-10T11:44:21;5.43;;;5.13;;
291;SDS011;23311;48.776;9.162;2023-06-10T11:46:56;5.70;;;5.40;;
291;SDS011;23311;48.776;9.162;2023-06-10T11:49:24;6.00;;;5.70;;
291;SDS011;23311;48.776;9.162;2023-06-10T11:51:53;5.37;;;5.07;;
291;SDS011;23311;48.776;9.162;2023-06-10T11:54:22;6.10;;;5.80;;
291;SDS011;23311;48.776;9.162;2023-06-10T11:56:56;5.60;;;5.30;;
291;SDS011;23311;48.776;9.162;2023-06-10T11:59:26;5.37;;;5.07;;
291;SDS011;23311;48.776;9.162;2023-06-10T12:01:55;5.63;;;5.33;;
291;SDS011;23311;48.776;9.162;2023-06-10T12:04:23;5.70;;;5.40;;
291;SDS011;23311;48.776;9.162;2023-06-10T12:06:53;4.93;;;4.63;;
291;SDS011;23311;48.776;9.162;2023-06-10T12:09:22;6.00;;;5.70;;
291;SDS011;23311;48.776;9.162;2023-06-10T12:11:54;5.57;;;5.33;;
291;SDS011;23311;48.776;9.162;2023-06-10T12:17:20;5.07;;;4.77;;
291;SDS011;23311;48.776;9.162;2023-06-10T12:19:49;5.53;;;4.90;;
291;SDS011;23311;48.776;9.162;2023-06-10T12:22:19;5.07;;;4.77;;
291;SDS011;23311;48.776;9.162;2023-06-10T12:24:59;5.43;;;5.13;;
291;SDS011;23311;48.776;9.162;2023-06-10T12:27:29;6.07;;;5.77;;
291;SDS011;23311;48.776;9.162;2023-06-10T12:29:58;5.60;;;5.30;;
291;SDS011;23311;48.776;9.162;2023-06-10T12:32:38;4.83;;;4.53;;
291;SDS011;23311;48.776;9.162;2023-06-10T12:35:09;5.00;;;4.70;;
291;SDS011;23311;48.776;9.162;2023-06-10T12:37:41;5.50;;;5.20;;
291;SDS011;23311;48.776;9.162;2023-06-10T12:40:10;4.90;;;4.60;;
291;SDS011;23311;48.776;9.162;2023-06-10T12:42:38;4.90;;;4.60;;
291;SDS011;23311;48.776;9.162;2023-06-10T12:45:08;4.67;;;4.40;;
291;SDS011;23311;48.776;9.162;2023-06-10T12:47:39;5.27;;;4.97;;
291;SDS011;23311;48.776;9.162;2023-06-10T12:50:08;5.40;;;5.10;;
291;SDS011;23311;48.776;9.162;2023-06-10T12:52:38;4.90;;;4.60;;
291;SDS011;23311;48.776;9.162;2023-06-10T12:55:08;5.27;;;4.97;;
291;SDS011;23311;48.776;9.162;2023-06-10T12:57:37;4.67;;;4.37;;
291;SDS011;23311;48.776;9.162;2023-06-10T13:00:15;5.30;;;5.00;;
291;SDS011;23311;48.776;9.162;2023-06-10T13:02:44;4.97;;;4.67;;
291;SDS011;23311;48.776;9.162;2023-06-10T13:05:12;4.63;;;4.33;;
291;SDS011;23311;48.776;9.162;2023-06-10T13:07:44;5.73;;;4.80;;
291;SDS011;23311;48.776;9.162;2023-06-10T13:10:12;4.83;;;4.53;;
291;SDS011;23311;48.776;9.162;2023-06-10T13:12:41;5.37;;;5.07;;
291;SDS011;23311;48.776;9.162;2023-06-10T13:15:14;5.63;;;4.80;;
291;SDS011;23311;48.776;9.162;2023-06-10T13:17:42;5.10;;;4.50;;
291;SDS011;23311;48.776;9.162;2023-06-10T13:20:12;4.60;;;4.30;;
291;SDS011;23311;48.776;9.162;2023-06-10T13:22:40;5.13;;;4.83;;
291;SDS011;23311;48.776;9.162;2023-06-10T13:25:10;4.67;;;4.37;;
291;SDS011;23311;48.776;9.162;2023-06-10T13:27:39;4.90;;;4.60;;
291;SDS011;23311;48.776;9.162;2023-06-10T13:30:09;5.00;;;4.70;;
291;SDS011;23311;48.776;9.162;2023-06-10T13:32:38;6.90;;;6.47;;
291;SDS011;23311;48.776;9.162;2023-06-10T13:35:07;4.77;;;4.47;;
291;SDS011;23311;48.776;9.162;2023-06-10T13:37:36;5.77;;;4.93;;
291;SDS011;23311;48.776;9.162;2023-06-10T13:40:05;4.47;;;4.17;;
291;SDS011;23311;48.776;9.162;2023-06-10T13:42:37;4.40;;;4.10;;
291;SDS011;23311;48.776;9.162;2023-06-10T13:45:06;4.50;;;4.20;;
291;SDS011;23311;48.776;9.162;2023-06-10T13:47:36;4.23;;;3.97;;
291;SDS011;23311;48.776;9.162;2023-06-10T13:50:05;4.50;;;4.20;;
291;SDS011;23311;48.776;9.162;2023-06-10T13:52:34;4.90;;;4.60;;
291;SDS011;23311;48.776;9.162;2023-06-10T13:55:03;9.57;;;5.90;;
291;SDS011;23311;48.776;9.162;2023-06-10T13:57:31;7.47;;;6.73;;
291;SDS011;23311;48.776;9.162;2023-06-10T14:00:01;7.77;;;7.37;;
291;SDS011;23311;48.776;9.162;2023-06-10T14:02:29;4.90;;;4.60;;
291;SDS011;23311;48.776;9.162;2023-06-10T14:04:57;4.97;;;4.67;;
291;SDS011;23311;48.776;9.162;2023-06-10T14:07:25;6.07;;;5.77;;
291;SDS011;23311;48.776;9.162;2023-06-10T14:09:54;4.97;;;4.67;;
291;SDS011;23311;48.776;9.162;2023-06-10T14:12:22;4.90;;;4.60;;
291;SDS011;23311;48.776;9.162;2023-06-10T14:14:51;4.40;;;4.10;;
291;SDS011;23311;48.776;9.162;2023-06-10T14:17:20;4.63;;;4.33;;
291;SDS011;23311;48.776;9.162;2023-06-10T14:19:49;4.60;;;4.30;;
291;SDS011;23311;48.776;9.162;2023-06-10T14:22:17;4.70;;;4.43;;
291;SDS011;23311;48.776;9.162;2023-06-10T14:24:45;4.10;;;3.77;;
291;SDS011;23311;48.776;9.162;2023-06-10T14:27:14;4.50;;;4.20;;
291;SDS011;23311;48.776;9.162;2023-06-10T14:29:42;4.27;;;4.00;;
291;SDS011;23311;48.776;9.162;2023-06-10T14:32:10;4.17;;;3.93;;
291;SDS011;23311;48.776;9.162;2023-06-10T14:34:40;4.50;;;4.20;;
291;SDS011;23311;48.776;9.162;2023-06-10T14:37:10;4.40;;;4.10;;
291;SDS011;23311;48.776;9.162;2023-06-10T14:39:38;4.73;;;4.20;;
291;SDS011;23311;48.776;9.162;2023-06-10T14:42:07;4.60;;;4.30;;
291;SDS011;23311;48.776;9.162;2023-06-10T14:44:35;4.63;;;4.33;;
291;SDS011;23311;48.776;9.162;2023-06-10T14:47:03;5.07;;;4.77;;
291;SDS011;23311;48.776;9.162;2023-06-10T14:49:31;5.13;;;4.83;;
291;SDS011;23311;48.776;9.162;2023-06-10T14:52:01;5.60;;;5.30;;
291;SDS011;23311;48.776;9.162;2023-06-10T14:54:29;5.47;;;5.10;;
291;SDS011;23311;48.776;9.162;2023-06-10T14:56:57;5.43;;;5.13;;
291;SDS011;23311;48.776;9.162;2023-06-10T14:59:25;5.30;;;5.00;;
291;SDS011;23311;48.776;9.162;2023-06-10T15:01:53;4.93;;;4.63;;
291;SDS011;23311;48.776;9.162;2023-06-10T15:04:21;5.47;;;5.17;;
291;SDS011;23311;48.776;9.162;2023-06-10T15:06:50;4.83;;;4.53;;
291;SDS011;23311;48.776;9.162;2023-06-10T15:09:19;4.70;;;4.40;;
291;SDS011;23311;48.776;9.162;2023-06-10T15:11:47;5.93;;;4.80;;
291;SDS011;23311;48.776;9.162;2023-06-10T15:14:16;5.00;;;4.70;;
291;SDS011;23311;48.776;9.162;2023-06-10T15:16:44;5.60;;;5.30;;
291;SDS011;23311;48.776;9.162;2023-06-10T15:19:12;4.97;;;4.67;;
291;SDS011;23311;48.776;9.162;2023-06-10T15:21:40;5.33;;;5.03;;
291;SDS011;23311;48.776;9.162;2023-06-10T15:24:08;5.67;;;5.37;;
291;SDS011;23311;48.776;9.162;2023-06-10T15:26:38;5.80;;;5.50;;
291;SDS011;23311;48.776;9.162;2023-06-10T15:29:07;5.67;;;5.37;;
291;SDS011;23311;48.776;9.162;2023-06-10T15:31:35;5.57;;;5.27;;
291;SDS011;23311;48.776;9.162;2023-06-10T15:34:03;5.27;;;4.97;;
291;SDS011;23311;48.776;9.162;2023-06-10T15:36:33;5.13;;;4.83;;
291;SDS011;23311;48.776;9.162;2023-06-10T15:39:03;4.90;;;4.60;;
291;SDS011;23311;48.776;9.162;2023-06-10T15:41:33;4.70;;;4.40;;